»·PEaware :: SKW4726 KMFR-KSLC

SKW4726 :: KMFR-KSLC

FLIGHT INFORMATION

Flight Status: Arrived
Operator:
SkyWest Airlines
More flights by this operator :: More flights under this callsign
Pilot: Sanjiv S. (4490)
Aircraft: AIRBUS A319
(A319)
More flights by this aircraft type
Origin: KMFR Rogue Valley Intl-Medford
United States
Destination: KSLC Salt Lake City Intl
United States
More flights between these airports :: More routes between these airports
Route: +JKSN1 OED V122 LMT LOKEY BVL WAATS5
File this flight plan on PilotEdge
Remarks: PBN / A1B1C1D1O1S1 DOF / 181223 REG / N319SB EET / KZLC0025 OPR / SKW PER / C RMK / TCAS SIMBRIEF
Altitude:
(Current/Filed)
37,000ft
Speed:
(Current/Filed)
436kts
Departed: 23-Dec-18 10:03 AM
Arrived: 23-Dec-18 11:31 AM
Distance/Time
Traveled:
498nm/1:28
Distance/Time
To Go:
Arrived

Flight Plot

Page will automatically refresh every two minutes.

Flight plan parsing failed; only flown route is shown


Map Options




Map Legend


Flown Route
Filed Route
Departure Airport
Arrival Airport
Navaid (VOR, NDB)
Fix

Horizontal Profiles

Position Reports

Time Latitude Longitude Heading Altitude Ground
Speed
23-Dec-18 09:18 42.368978 -122.873510 248 1321ft 0kts
23-Dec-18 09:19 42.368978 -122.873510 248 1321ft 0kts
23-Dec-18 09:20 42.368978 -122.873510 248 1321ft 0kts
23-Dec-18 09:21 42.368978 -122.873510 248 1321ft 0kts
23-Dec-18 09:22 42.368978 -122.873510 248 1321ft 0kts
23-Dec-18 09:23 42.368978 -122.873510 248 1321ft 0kts
23-Dec-18 09:24 42.368978 -122.873510 248 1321ft 0kts
23-Dec-18 09:25 42.368978 -122.873510 248 1321ft 0kts
23-Dec-18 09:26 42.368978 -122.873510 248 1321ft 0kts
23-Dec-18 09:27 42.368978 -122.873510 248 1321ft 0kts
23-Dec-18 09:28 42.368978 -122.873510 248 1321ft 0kts
23-Dec-18 09:29 42.368978 -122.873510 248 1321ft 0kts
23-Dec-18 09:30 42.368978 -122.873510 248 1321ft 0kts
23-Dec-18 09:31 42.368978 -122.873510 248 1321ft 0kts
23-Dec-18 09:32 42.368978 -122.873510 248 1321ft 0kts
23-Dec-18 09:33 42.368978 -122.873510 248 1321ft 0kts
23-Dec-18 09:34 42.368978 -122.873510 248 1321ft 0kts
23-Dec-18 09:35 42.368978 -122.873510 248 1321ft 0kts
23-Dec-18 09:36 42.368978 -122.873510 248 1321ft 0kts
23-Dec-18 09:37 42.368978 -122.873510 248 1321ft 0kts
23-Dec-18 09:38 42.368978 -122.873510 248 1321ft 0kts
23-Dec-18 09:39 42.368978 -122.873510 248 1321ft 0kts
23-Dec-18 09:40 42.368978 -122.873510 248 1321ft 0kts
23-Dec-18 09:41 42.368978 -122.873510 248 1321ft 0kts
23-Dec-18 09:42 42.368978 -122.873510 248 1321ft 0kts
23-Dec-18 09:43 42.368978 -122.873510 248 1321ft 0kts
23-Dec-18 09:44 42.368978 -122.873509 248 1321ft 0kts
23-Dec-18 09:45 42.368978 -122.873509 248 1321ft 0kts
23-Dec-18 09:46 42.369073 -122.873187 248 1321ft 2kts
23-Dec-18 09:47 42.368963 -122.872490 338 1323ft 2kts
23-Dec-18 09:48 42.368688 -122.872506 30 1323ft 0kts
23-Dec-18 09:49 42.368688 -122.872506 30 1323ft 0kts
23-Dec-18 09:50 42.368688 -122.872506 30 1323ft 0kts
23-Dec-18 09:51 42.368688 -122.872506 30 1323ft 0kts
23-Dec-18 09:52 42.368688 -122.872506 30 1323ft 0kts
23-Dec-18 09:53 42.368688 -122.872506 30 1323ft 0kts
23-Dec-18 09:54 42.368688 -122.872506 30 1323ft 0kts
23-Dec-18 09:55 42.368688 -122.872506 30 1323ft 0kts
23-Dec-18 09:56 42.368688 -122.872506 30 1323ft 0kts
23-Dec-18 09:57 42.368688 -122.872506 30 1323ft 0kts
23-Dec-18 09:58 42.370708 -122.872634 337 1320ft 17kts
23-Dec-18 09:59 42.376059 -122.875438 338 1312ft 23kts
23-Dec-18 10:00 42.382442 -122.878818 334 1306ft 25kts
23-Dec-18 10:01 42.385864 -122.879007 136 1303ft 10kts
23-Dec-18 10:02 42.369464 -122.870353 158 1324ft 165kts
23-Dec-18 10:03 42.332340 -122.886777 261 3530ft 184kts
23-Dec-18 10:04 42.372419 -122.925119 4 5797ft 233kts
23-Dec-18 10:05 42.437499 -122.913699 23 9177ft 254kts
23-Dec-18 10:06 42.446661 -122.821676 121 11772ft 300kts
23-Dec-18 10:07 42.405105 -122.716233 120 14190ft 332kts
23-Dec-18 10:08 42.361858 -122.602615 120 16577ft 351kts
23-Dec-18 10:09 42.314579 -122.479121 120 17825ft 401kts
23-Dec-18 10:10 42.259280 -122.335040 120 18487ft 460kts
23-Dec-18 10:11 42.220724 -122.162457 102 19768ft 495kts
23-Dec-18 10:12 42.192556 -121.977403 103 21401ft 510kts
23-Dec-18 10:13 42.162777 -121.788134 104 22868ft 524kts
23-Dec-18 10:14 42.093110 -121.618837 132 24212ft 525kts
23-Dec-18 10:15 42.003333 -121.463002 131 25960ft 526kts
23-Dec-18 10:16 41.914960 -121.308023 132 27594ft 526kts
23-Dec-18 10:17 41.828386 -121.157079 133 29304ft 520kts
23-Dec-18 10:18 41.741289 -121.006104 132 30661ft 519kts
23-Dec-18 10:19 41.653006 -120.853526 132 31921ft 518kts
23-Dec-18 10:20 41.565259 -120.702623 132 33047ft 518kts
23-Dec-18 10:21 41.477214 -120.551947 132 34067ft 518kts
23-Dec-18 10:22 41.388242 -120.400421 132 35059ft 517kts
23-Dec-18 10:23 41.300661 -120.251614 133 35893ft 515kts
23-Dec-18 10:24 41.212174 -120.102310 133 36545ft 514kts
23-Dec-18 10:25 41.125475 -119.951377 125 37055ft 519kts
23-Dec-18 10:26 41.082006 -119.768503 92 37256ft 530kts
23-Dec-18 10:27 41.076823 -119.572734 91 37262ft 530kts
23-Dec-18 10:28 41.070164 -119.378111 91 37266ft 531kts
23-Dec-18 10:29 41.062812 -119.182027 92 37281ft 532kts
23-Dec-18 10:30 41.055165 -118.987224 92 37288ft 532kts
23-Dec-18 10:31 41.047141 -118.791500 92 37282ft 530kts
23-Dec-18 10:33 41.038866 -118.596793 92 37272ft 531kts
23-Dec-18 10:34 41.030222 -118.401470 92 37265ft 531kts
23-Dec-18 10:35 41.021395 -118.209120 92 37262ft 531kts
23-Dec-18 10:36 41.012111 -118.014253 92 37263ft 532kts
23-Dec-18 10:37 41.002476 -117.819120 92 37263ft 532kts
23-Dec-18 10:38 40.992510 -117.623748 92 37263ft 532kts
23-Dec-18 10:39 40.982165 -117.427830 92 37264ft 533kts
23-Dec-18 10:40 40.971541 -117.232489 93 37266ft 533kts
23-Dec-18 10:41 40.960560 -117.037074 93 37294ft 533kts
23-Dec-18 10:42 40.949266 -116.841768 93 37306ft 533kts
23-Dec-18 10:43 40.937600 -116.646291 93 37307ft 533kts
23-Dec-18 10:44 40.925611 -116.450662 93 37307ft 533kts
23-Dec-18 10:45 40.913308 -116.254872 94 37306ft 533kts
23-Dec-18 10:46 40.900639 -116.059163 94 37314ft 533kts
23-Dec-18 10:47 40.887360 -115.866511 94 37316ft 534kts
23-Dec-18 10:48 40.873977 -115.671734 94 37316ft 533kts
23-Dec-18 10:49 40.860314 -115.476163 94 37316ft 533kts
23-Dec-18 10:50 40.846353 -115.280539 95 37310ft 534kts
23-Dec-18 10:50 40.834476 -115.118450 94 37316ft 533kts
23-Dec-18 10:52 40.817435 -114.891160 93 37316ft 533kts
23-Dec-18 10:52 40.805083 -114.729030 94 37313ft 533kts
23-Dec-18 10:54 40.787401 -114.502995 94 37031ft 533kts
23-Dec-18 10:54 40.774411 -114.340404 94 36264ft 530kts
23-Dec-18 10:56 40.756335 -114.118176 94 35233ft 526kts
23-Dec-18 10:56 40.743086 -113.958692 94 33514ft 531kts
23-Dec-18 10:58 40.726103 -113.732698 90 30235ft 521kts
23-Dec-18 10:58 40.725601 -113.576903 88 30279ft 503kts
23-Dec-18 10:59 40.725380 -113.390154 89 26809ft 518kts
23-Dec-18 11:00 40.724684 -113.213121 90 23087ft 512kts
23-Dec-18 11:01 40.723682 -113.024976 91 19781ft 480kts
23-Dec-18 11:02 40.722520 -112.854726 91 16861ft 450kts
23-Dec-18 11:03 40.721112 -112.695003 91 14104ft 422kts
23-Dec-18 11:04 40.719836 -112.555539 91 14005ft 341kts
23-Dec-18 11:05 40.719114 -112.508585 92 13877ft 325kts
23-Dec-18 11:06 40.713316 -112.321311 93 12005ft 298kts
23-Dec-18 11:07 40.712530 -112.217241 88 12006ft 281kts
23-Dec-18 11:08 40.735484 -112.127242 44 12000ft 258kts
23-Dec-18 11:09 40.797801 -112.094839 353 11997ft 240kts
23-Dec-18 11:10 40.863962 -112.104957 352 11994ft 239kts
23-Dec-18 11:11 40.930300 -112.113002 352 11997ft 239kts
23-Dec-18 11:12 40.996664 -112.120922 351 12000ft 240kts
23-Dec-18 11:13 41.063164 -112.128869 350 12000ft 241kts
23-Dec-18 11:14 41.128910 -112.136732 349 11997ft 241kts
23-Dec-18 11:15 41.195880 -112.144791 349 11997ft 241kts
23-Dec-18 11:16 41.263043 -112.151099 355 11994ft 243kts
23-Dec-18 11:17 41.325472 -112.150107 357 11997ft 244kts
23-Dec-18 11:18 41.356499 -112.082672 122 12030ft 250kts
23-Dec-18 11:19 41.304001 -112.028290 151 12025ft 240kts
23-Dec-18 11:20 41.244217 -112.000270 181 11647ft 227kts
23-Dec-18 11:21 41.181743 -112.001359 188 10631ft 208kts
23-Dec-18 11:22 41.128262 -112.008124 186 9497ft 188kts
23-Dec-18 11:23 41.077041 -112.012380 184 8081ft 185kts
23-Dec-18 11:24 41.025760 -112.016479 183 7504ft 186kts
23-Dec-18 11:25 40.973771 -112.018168 176 7450ft 189kts
23-Dec-18 11:26 40.921421 -112.012642 175 6481ft 187kts
23-Dec-18 11:27 40.876037 -112.007328 174 5587ft 154kts
23-Dec-18 11:28 40.833591 -112.002327 175 4798ft 152kts
23-Dec-18 11:29 40.793443 -111.997595 175 4236ft 96kts
23-Dec-18 11:30 40.785135 -111.996038 145 4236ft 8kts
23-Dec-18 11:31 40.784571 -111.995316 136 4236ft 0kts
23-Dec-18 11:32 40.784530 -111.995264 135 4236ft 4kts
23-Dec-18 11:33 40.786106 -111.993632 351 4236ft 13kts
23-Dec-18 11:34 40.787203 -111.989379 82 4236ft 15kts
23-Dec-18 11:35 40.787448 -111.986115 81 4236ft 8kts
23-Dec-18 11:36 40.787675 -111.985052 70 4236ft 0kts

Navigation Log

Ident Type
Flight plan parsing failed, navigation log unavailable